Back to Top
Banner_Quays_at_Mast_2020.jpeg
previous arrow
next arrow

Port Arrivals Report (AIS)

This report is generated from collected AIS (Automated Identification System) signals from vessels entering port.

IMO MMSI Class Flag Vessel Name Vessel type Nav Status Destination Call Sign Latitude Longitude Speed (kts) Course (T) Draught (m) LOA (m) Beam (m) Timestamp
0 250014182 A IE LADY CATHERINE PASSENGER. - EIA2647 51.6885 -8.49838 10 341.7 0 0 0 2026-08-13 13:36:43
0 250001828 A IE EMILIJA SAILING. Moored EIHU-6 51.688 -8.49907 7.3 344.8 2.3 16 4 2026-08-13 13:01:06
0 368246290 B US DEJA BLUE SAILING. - WDM8769 51.6879 -8.49732 5.6 350.5 0 15 5 2026-08-13 12:07:59
0 250006183 A IE HARVEST REAPER II FISHING. - BALTIMORE EI-XW-3 51.6872 -8.49825 6.5 356.6 3 17 6 2026-08-13 11:03:03
0 250014182 A IE LADY CATHERINE PASSENGER. - EIA2647 51.6895 -8.4982 9.2 358.9 0 0 0 2026-08-12 20:25:20
0 250006035 B IE VALFREYA SAILING. - EI-XB-6 51.6873 -8.50161 1.8 347.4 0 10 3 2026-08-12 20:09:07
0 250004059 B IE JUSTUS SAILING. - EI-RR-6 51.6876 -8.50075 3.4 349.4 0 11 3 2026-08-12 20:07:06
0 250001875 B IE REAVRA TOO SAILING. - EIHT4 51.6872 -8.50084 2.7 6.3 0 0 0 2026-08-12 20:05:40
0 227369590 B FR LOMASYPA TOO Pleasure craft - FAD2050 51.6877 -8.50164 10 301.1 0 0 0 2026-08-12 19:50:28
0 269117190 B CH KAIREOL SAILING. - HBY5761 51.6874 -8.49769 5.5 353.8 0 13 4 2026-08-12 19:17:59
0 250129460 B IE SHARPSHOOTER TANKER. - EI 5069 51.6895 -8.50012 10.3 350.6 0 12 4 2026-08-12 18:30:03
0 250014474 B IE SAMI SAILING. - 51.6883 -8.49986 4.8 338.4 0 10 3 2026-08-12 18:26:26
0 235019224 B GB SPIRIT OF AILSA SAILING. - MRFE9 51.6876 -8.49753 5.8 358.1 0 11 4 2026-08-12 17:58:51
0 250003182 B IE APHRODITE Pleasure craft - EI-PO-4 51.6883 -8.49772 5 346 0 10 3 2026-08-12 17:58:39
0 250005542 B IE T BURKE 2 DREDGING / UNDERWATER Ops. - EIVG3 51.689 -8.49673 10.5 357.5 0 13 4 2026-08-12 15:33:15
0 250013937 B IE TIPSY Pleasure craft - EIA2403 51.6884 -8.49954 4.7 352.5 0 9 3 2026-08-12 15:11:05
0 250014852 B IE CUILEANN Pleasure craft - EIA3318 51.6884 -8.49954 7 351.9 0 10 3 2026-08-12 14:25:11
0 250014182 A IE LADY CATHERINE PASSENGER. - EIA2647 51.6878 -8.49866 9.8 352.8 0 0 0 2026-08-12 13:21:18
0 211266780 B DE GLUECKSBURG SAILING. - DJGD 51.6875 -8.49851 5.4 355.7 0 18 6 2026-08-12 11:09:56
0 232016609 B GB RNLI LIFEBOAT B-909 SAR. - 51.6948 -8.50173 34.5 339.3 0 8 2 2026-08-11 20:10:11